Tiempo atmosférico en la estación meteorológica de El Pedregal, Guadalajara (1185 m.)

Fecha
DESCASC
Temp. máxima en grados centígrados (hora)
DESCASC
Temp. mínima en grados centígrados (hora)
DESCASC
Temp. media en grados centígrados
DESCASC
Racha de viento máxima en m/sg (hora)
DESCASC
Velocidad máxima media en intervalos de 10 minutos(hora)
DESCASC
Precipitaciones diarias en mm
DESCASC
Precipitaciones de 00:00 a 06:00 en mm
DESCASC
Precipitaciones de 06:00 a 12:00 en mm
DESCASC
Precipitaciones de 12:00 a 18:00 en mm
DESCASC
Precipitaciones de 18:00 a 24:00 en mm
DESCASC
23-11-2017 16.8 (13:40) 8.4 (07:20) 12.6 16.39 (13:00) 10.28 (13:00) 0 0 0 0 0
22-11-2017 16.5 (15:00) -0.5 (03:10) 8 10.83 (22:20) 6.67 (22:20) 0 0 0 0 0
21-11-2017 19.3 (15:10) 0.3 (05:30) 9.8 5.28 (11:20) 3.89 (23:50) 0 0 0 0 0
20-11-2017 18.6 (15:00) 0 (06:50) 9.3 7.22 (11:40) 4.44 (12:30) 0 0 0 0 0
19-11-2017 17.8 (15:00) -1.6 (-00:0) 8.1 6.39 (11:10) 4.17 (10:50) 0 0 0 0 0
18-11-2017 16.3 (14:40) -1 (-00:0) 7.6 6.11 (12:50) 3.89 (13:00) 0 0 0 0 0
17-11-2017 18.4 (16:40) -0.2 (00:00) 9.1 4.17 (12:40) 2.78 (06:40) 0 0 0 0 0
16-11-2017 16.5 (14:30) -0.1 (00:00) 8.2 6.67 (16:50) 4.17 (02:10) 0 0 0 0 0
15-11-2017 18.6 (14:50) -3.5 (-00:0) 7.6 7.78 (11:00) 5 (10:30) 0 0 0 0 0
14-11-2017 12.4 (16:10) -2.5 (-00:0) 4.9 9.72 (01:00) 5.28 (01:00) 0 0 0 0 0
13-11-2017 6.5 (00:00) -0.9 (-00:0) 2.8 15.83 (15:00) 8.33 (15:30) 0 0 0 0 0
12-11-2017 15.1 (14:30) 2.3 (00:00) 8.7 10 (15:00) 5.83 (06:10) 0 0 0 0 0
11-11-2017 13.7 (16:30) 3.7 (00:00) 8.7 8.61 (07:00) 5.83 (06:50) 0 0 0 0 0
10-11-2017 12 (15:00) -0.9 (-00:0) 5.6 10.28 (15:20) 6.11 (09:30) 0 0 0 0 0
09-11-2017 7.5 (15:50) -1.1 (-00:0) 3.2 11.11 (12:40) 5.83 (08:40) 0 0 0 0 0
08-11-2017 9.3 (13:50) 0.2 (00:00) 4.8 10.56 (14:20) 5.28 (14:20) 2 0 0 0 2
07-11-2017 13.1 (15:50) 0.2 (00:00) 6.7 10.83 (10:20) 6.39 (04:00) 0 0 0 0 0
06-11-2017 7.9 (15:30) 2.1 (00:00) 5 12.78 (16:20) 7.78 (16:00) 0 0 0 0 0
05-11-2017 10.7 (14:50) 3.3 (00:00) 7 11.39 (15:40) 5.83 (17:20) 0.2 0.2 0 0 0
04-11-2017 12.3 (12:10) 7 (00:00) 9.7 8.33 (16:40) 5.28 (16:40) 3.4 0 0 3.2 0.2
03-11-2017 18.6 (15:00) 7.4 (00:00) 13 9.17 (12:00) 4.72 (11:00) 0 0 0 0 0
02-11-2017 19.6 (14:10) 4 (06:50) 11.8 5.83 (16:40) 3.61 (16:50) 0 0 0 0 0
01-11-2017 19.9 (15:20) 2.6 (00:00) 11.2 7.22 (20:50) 5 (21:30) 0 0 0 0 0
31-10-2017 18.9 (14:20) 0.1 (00:00) 9.5 8.61 (14:10) 5.83 (15:30) 0 0 0 0 0
30-10-2017 16.8 (16:00) 1.7 (00:00) 9.2 7.5 (13:50) 4.17 (14:00) 0 0 0 0 0
29-10-2017 17.7 (14:40) 2.2 (00:00) 10 6.39 (15:00) 3.61 (15:00) 0 0 0 0 0
28-10-2017 18.1 (16:30) 4.2 (00:00) 11.2 6.39 (16:40) 3.89 (00:10) 0 0 0 0 0
27-10-2017 23 (16:40) 7.6 (00:00) 15.3 9.17 (15:10) 5.28 (14:30) 0 0 0 0 0
26-10-2017 28.8 (17:00) 6.1 (00:00) 17.4 5 (16:10) 3.33 (01:30) 0 0 0 0 0

Gráficas

Temp. máximas Temp. mínimas Temp. medias Precipitaciones Rachas de viento máximas Velocidades máximas media en intervalos de 10 minutos

Datos horarios

Fecha y hora oficial Temperatura (ºC) Velocidad del viento (km/h) Dirección del viento Racha (km/h) Dirección de racha Precipitación (mm) Presión (hPa) Tendencia (hPa) Humedad (%)
2017-11-24 23:00:00 10 9 Sudoeste 19 Sudoeste 0 -- -- 43
2017-11-24 22:00:00 9.8 9 Sudoeste 29 Sudoeste 0 -- -- 47
2017-11-24 21:00:00 10.5 9 Sudoeste 27 Oeste 0 -- -- 51
2017-11-24 20:00:00 9.3 2 Oeste 16 Sudoeste 0 -- -- 61
2017-11-24 19:00:00 10.6 4 Oeste 36 Oeste 0 -- -- 58
2017-11-24 18:00:00 12.6 15 Sudoeste 39 Oeste 0 -- -- 50
2017-11-24 17:00:00 14.8 26 Oeste 49 Oeste 0 -- -- 46
2017-11-24 16:00:00 15.2 29 Oeste 46 Oeste 0 -- -- 45
2017-11-24 15:00:00 14.5 14 Oeste 45 Oeste 0 -- -- 50
2017-11-24 14:00:00 13.7 22 Oeste 40 Oeste 0 -- -- 56
2017-11-24 13:00:00 13.2 25 Oeste 50 Oeste 0 -- -- 61
2017-11-24 12:00:00 12.7 18 Oeste 35 Sudoeste 0 -- -- 58
2017-11-24 11:00:00 11.5 14 Oeste 39 Oeste 0 -- -- 54
2017-11-24 10:00:00 12 27 Oeste 54 Oeste 0 -- -- 51
2017-11-24 09:00:00 11.1 26 Oeste 44 Oeste 0 -- -- 49
2017-11-24 08:00:00 10.6 20 Oeste 45 Oeste 0 -- -- 48
2017-11-24 07:00:00 10.8 9 Oeste 32 Sudoeste 0 -- -- 43
2017-11-24 06:00:00 11 10 Oeste 33 Sudoeste 0 -- -- 37
2017-11-24 05:00:00 11.3 16 Sudoeste 28 Sudoeste 0 -- -- 37
2017-11-24 04:00:00 11.3 8 Oeste 22 Sudoeste 0 -- -- 38
2017-11-24 03:00:00 10.9 12 Sudoeste 20 Sur 0 -- -- 40
2017-11-24 02:00:00 6.6 0 Calma 6 Oeste 0 -- -- 50
2017-11-24 01:00:00 7 0 Calma 10 Sur 0 -- -- 48
2017-11-24 00:00:00 8.5 3 Oeste 19 Sudoeste 0 -- -- 44
2017-11-23 23:00:00 10.5 13 Sudoeste 21 Sudoeste 0 -- -- 40
2017-11-23 22:00:00 10.9 13 Sudoeste 26 Sudoeste 0 -- -- 39
2017-11-23 21:00:00 11.8 19 Sudoeste 34 Oeste 0 -- -- 37
2017-11-23 20:00:00 11.4 17 Sudoeste 26 Sudoeste 0 -- -- 37
2017-11-23 19:00:00 11 9 Oeste 22 Oeste 0 -- -- 36
2017-11-23 18:00:00 11.8 9 Oeste 33 Oeste 0 -- -- 34
2017-11-23 17:00:00 14.2 17 Oeste 45 Oeste 0 -- -- 29
2017-11-23 16:00:00 15.3 23 Oeste 53 Oeste 0 -- -- 27
2017-11-23 15:00:00 15.1 32 Oeste 57 Oeste 0 -- -- 28
2017-11-23 14:00:00 16.5 30 Oeste 54 Oeste 0 -- -- 27
2017-11-23 13:00:00 15.8 37 Oeste 59 Oeste 0 -- -- 28
2017-11-23 12:00:00 16.2 30 Oeste 52 Oeste 0 -- -- 27
2017-11-23 11:00:00 15 19 Oeste 45 Sudoeste 0 -- -- 30
2017-11-23 10:00:00 14 19 Oeste 41 Sudoeste 0 -- -- 33
2017-11-23 09:00:00 12.2 14 Oeste 30 Oeste 0 -- -- 37
2017-11-23 08:00:00 11.2 7 Oeste 19 Oeste 0 -- -- 41
2017-11-23 07:00:00 8.7 5 Norte 19 Sudoeste 0 -- -- 43
2017-11-23 06:00:00 9.5 7 Oeste 31 Sudoeste 0 -- -- 40
2017-11-23 05:00:00 11.1 18 Sudoeste 35 Oeste 0 -- -- 36
2017-11-23 04:00:00 11 19 Sudoeste 40 Sudoeste 0 -- -- 36
2017-11-23 03:00:00 10.6 17 Sudoeste 32 Sudoeste 0 -- -- 37
2017-11-23 02:00:00 10.2 14 Sudoeste 28 Sudoeste 0 -- -- 38
2017-11-23 01:00:00 10.5 17 Sudoeste 28 Sudoeste 0 -- -- 35
2017-11-23 00:00:00 10.3 10 Sudoeste 25 Sudoeste 0 -- -- 35
2017-11-22 23:00:00 10.3 14 Sudoeste 39 Sudoeste 0 -- -- 35
2017-11-22 22:00:00 11.5 22 Sudoeste 36 Sudoeste 0 -- -- 32
2017-11-22 21:00:00 10 12 Oeste 27 Oeste 0 -- -- 34
2017-11-22 20:00:00 6.2 11 Oeste 15 Oeste 0 -- -- 42
2017-11-22 19:00:00 6.7 0 Calma 5 Oeste 0 -- -- 39
2017-11-22 18:00:00 10.9 3 Oeste 16 Sudoeste 0 -- -- 31
2017-11-22 17:00:00 16.1 5 Sudoeste 20 Oeste 0 -- -- 24
2017-11-22 16:00:00 15.9 14 Oeste 28 Oeste 0 -- -- 25
2017-11-22 15:00:00 16.5 14 Oeste 32 Oeste 0 -- -- 23
2017-11-22 14:00:00 16.2 19 Oeste 32 Oeste 0 -- -- 26
2017-11-22 13:00:00 16 13 Noroeste 24 Oeste 0 -- -- 28
2017-11-22 12:00:00 15.6 12 Noroeste 21 Oeste 0 -- -- 29
2017-11-22 11:00:00 13.7 13 Oeste 20 Oeste 0 -- -- 33
2017-11-22 10:00:00 12.2 7 Oeste 20 Oeste 0 -- -- 40
2017-11-22 09:00:00 5.5 2 Sudeste 6 Este 0 -- -- 53
2017-11-22 08:00:00 1.3 0 Calma 14 Norte 0 -- -- 62
2017-11-22 07:00:00 0.2 0 Calma 7 Sudoeste 0 -- -- 61
2017-11-22 06:00:00 0.2 0 Calma 5 Este 0 -- -- 59
2017-11-22 05:00:00 0.2 0 Calma 5 Este 0 -- -- 55
2017-11-22 04:00:00 0.1 2 Sudeste 5 Nordeste 0 -- -- 55
2017-11-22 03:00:00 -0.3 2 Sudeste 7 Oeste 0 -- -- 56
2017-11-22 02:00:00 0.8 6 Oeste 14 Oeste 0 -- -- 54
2017-11-22 01:00:00 1.3 5 Oeste 13 Sudoeste 0 -- -- 54
2017-11-22 00:00:00 2.8 8 Oeste 19 Oeste 0 -- -- 49
2017-11-21 23:00:00 3.3 4 Oeste 13 Oeste 0 -- -- 48
2017-11-21 22:00:00 4.6 5 Oeste 15 Oeste 0 -- -- 45
2017-11-21 21:00:00 9.2 10 Oeste 17 Oeste 0 -- -- 34
2017-11-21 20:00:00 5.7 7 Oeste 13 Oeste 0 -- -- 40
2017-11-21 19:00:00 4.6 7 Oeste 10 Oeste 0 -- -- 43
2017-11-21 18:00:00 8.8 2 Sur 10 Sudeste 0 -- -- 35
2017-11-21 17:00:00 14.3 8 Sudeste 13 Este 0 -- -- 27
2017-11-21 16:00:00 17.8 6 Sudeste 14 Sudeste 0 -- -- 23
2017-11-21 15:00:00 18.8 3 Sudoeste 16 Oeste 0 -- -- 18
2017-11-21 14:00:00 18.7 6 Oeste 13 Oeste 0 -- -- 20
2017-11-21 13:00:00 18.8 3 Sudeste 13 Este 0 -- -- 21
2017-11-21 12:00:00 16.3 7 Nordeste 19 Oeste 0 -- -- 25
2017-11-21 11:00:00 14 9 Noroeste 17 Oeste 0 -- -- 26
2017-11-21 10:00:00 11 8 Oeste 13 Oeste 0 -- -- 32
2017-11-21 09:00:00 7.2 3 Oeste 10 Oeste 0 -- -- 36
2017-11-21 08:00:00 2.4 0 Calma 13 Sudoeste 0 -- -- 44
2017-11-21 07:00:00 1.9 7 Oeste 12 Sudoeste 0 -- -- 46
2017-11-21 06:00:00 0.7 3 Oeste 7 Oeste 0 -- -- 51
2017-11-21 05:00:00 0.8 4 Oeste 13 Oeste 0 -- -- 53
2017-11-21 04:00:00 1.3 6 Oeste 13 Oeste 0 -- -- 53
2017-11-21 03:00:00 2.4 9 Oeste 17 Oeste 0 -- -- 50
2017-11-21 02:00:00 3 12 Oeste 17 Oeste 0 -- -- 49
2017-11-21 01:00:00 3.3 12 Oeste 17 Oeste 0 -- -- 47
2017-11-21 00:00:00 3.5 11 Oeste 15 Oeste 0 -- -- 45
2017-11-20 23:00:00 3.9 6 Oeste 14 Oeste 0 -- -- 44
2017-11-20 22:00:00 4.8 9 Oeste 12 Oeste 0 -- -- 41
2017-11-20 21:00:00 5.4 7 Oeste 12 Oeste 0 -- -- 40
2017-11-20 20:00:00 5 6 Oeste 13 Oeste 0 -- -- 40
2017-11-20 19:00:00 5.3 10 Oeste 13 Oeste 0 -- -- 39
2017-11-20 18:00:00 7.1 4 Oeste 7 Oeste 0 -- -- 35
2017-11-20 17:00:00 15.6 8 Sudeste 10 Este 0 -- -- 23
2017-11-20 16:00:00 18 6 Nordeste 12 Nordeste 0 -- -- 20
2017-11-20 15:00:00 18.6 5 Nordeste 19 Oeste 0 -- -- 20
2017-11-20 14:00:00 16.8 13 Oeste 23 Oeste 0 -- -- 20
2017-11-20 13:00:00 16 13 Oeste 25 Oeste 0 -- -- 22
2017-11-20 12:00:00 14.7 14 Oeste 26 Oeste 0 -- -- 22
2017-11-20 11:00:00 12.8 14 Oeste 22 Oeste 0 -- -- 23
2017-11-20 10:00:00 10.1 8 Noroeste 15 Oeste 0 -- -- 28
2017-11-20 09:00:00 4.7 7 Oeste 12 Oeste 0 -- -- 36
2017-11-20 08:00:00 0.6 2 Oeste 13 Oeste 0 -- -- 44
2017-11-20 07:00:00 0.5 6 Oeste 10 Oeste 0 -- -- 47
2017-11-20 06:00:00 0.5 8 Oeste 10 Sudoeste 0 -- -- 46
2017-11-20 05:00:00 1 3 Oeste 10 Oeste 0 -- -- 44
2017-11-20 04:00:00 1.7 5 Oeste 13 Oeste 0 -- -- 41
2017-11-20 03:00:00 3 12 Oeste 14 Oeste 0 -- -- 37
2017-11-20 02:00:00 3 5 Oeste 10 Oeste 0 -- -- 37
2017-11-20 01:00:00 3.2 7 Oeste 10 Oeste 0 -- -- 36
2017-11-20 00:00:00 2.3 0 Calma 8 Oeste 0 -- -- 38
2017-11-19 23:00:00 3.3 8 Oeste 12 Oeste 0 -- -- 35
2017-11-19 22:00:00 4.6 10 Oeste 14 Oeste 0 -- -- 32
2017-11-19 21:00:00 4.2 10 Oeste 15 Sudoeste 0 -- -- 33
2017-11-19 20:00:00 5.1 9 Oeste 14 Oeste 0 -- -- 31
2017-11-19 19:00:00 6 7 Oeste 13 Oeste 0 -- -- 30
2017-11-19 18:00:00 6.3 5 Oeste 8 Norte 0 -- -- 28
2017-11-19 17:00:00 16.6 3 Norte 13 Norte 0 -- -- 16
2017-11-19 16:00:00 16.9 6 Norte 14 Nordeste 0 -- -- 14
2017-11-19 15:00:00 17.8 5 Oeste 15 Oeste 0 -- -- 14
2017-11-19 14:00:00 16.2 8 Oeste 15 Noroeste 0 -- -- 19
2017-11-19 13:00:00 15.4 8 Noroeste 16 Oeste 0 -- -- 19
2017-11-19 12:00:00 13.3 10 Oeste 23 Oeste 0 -- -- 32
2017-11-19 11:00:00 11.3 14 Oeste 22 Oeste 0 -- -- 38
2017-11-19 10:00:00 8.4 8 Noroeste 16 Oeste 0 -- -- 45
2017-11-19 09:00:00 5.7 3 Oeste 15 Oeste 0 -- -- 49
2017-11-19 08:00:00 0.8 2 Oeste 14 Oeste 0 -- -- 62
2017-11-19 07:00:00 -0.9 2 Oeste 15 Oeste 0 -- -- 66
2017-11-19 06:00:00 -0.6 6 Oeste 13 Oeste 0 -- -- 67
2017-11-19 05:00:00 -0.1 5 Oeste 14 Oeste 0 -- -- 64
2017-11-19 04:00:00 0.1 6 Oeste 13 Sudoeste 0 -- -- 63
2017-11-19 03:00:00 -0.1 5 Sudoeste 10 Oeste 0 -- -- 70
2017-11-19 02:00:00 -1.3 0 Calma 5 Sudoeste 0 -- -- 81
2017-11-19 01:00:00 -0.5 2 Oeste 10 Oeste 0 -- -- 81
2017-11-19 00:00:00 -1 7 Oeste 11 Oeste 0 -- -- 84
2017-11-18 23:00:00 0.4 9 Oeste 12 Oeste 0 -- -- 81
2017-11-18 22:00:00 -0.7 4 Oeste 12 Oeste 0 -- -- 84
2017-11-18 21:00:00 0.3 8 Oeste 9 Oeste 0 -- -- 80
2017-11-18 20:00:00 1.2 4 Oeste 8 Oeste 0 -- -- 75
2017-11-18 19:00:00 3 3 Oeste 4 Oeste 0 -- -- 66
2017-11-18 18:00:00 7.5 3 Sudoeste 12 Sudeste 0 -- -- 52
2017-11-18 17:00:00 13.4 8 Sudeste 12 Este 0 -- -- 39
2017-11-18 16:00:00 15.5 8 Este 18 Sur 0 -- -- 35
2017-11-18 15:00:00 15.7 8 Nordeste 19 Norte 0 -- -- 34
2017-11-18 14:00:00 15.2 10 Nordeste 20 Nordeste 0 -- -- 36
2017-11-18 13:00:00 14.1 14 Nordeste 22 Este 0 -- -- 38
2017-11-18 12:00:00 13.7 6 Norte 17 Nordeste 0 -- -- 40
2017-11-18 11:00:00 12.5 6 Oeste 15 Noroeste 0 -- -- 43
2017-11-18 10:00:00 9.4 10 Oeste 14 Oeste 0 -- -- 46
2017-11-18 09:00:00 5.6 3 Oeste 12 Oeste 0 -- -- 54
2017-11-18 08:00:00 1.9 3 Oeste 12 Oeste 0 -- -- 63
2017-11-18 07:00:00 1.7 3 Oeste 5 Noroeste 0 -- -- 64
2017-11-18 06:00:00 2.1 3 Oeste 15 Oeste 0 -- -- 61
2017-11-18 05:00:00 4.1 10 Oeste 15 Oeste 0 -- -- 54
2017-11-18 04:00:00 3.7 10 Oeste 16 Oeste 0 -- -- 53
2017-11-18 03:00:00 2.2 10 Oeste 16 Oeste 0 -- -- 58
2017-11-18 02:00:00 2.8 13 Oeste 16 Oeste 0 -- -- 56
2017-11-18 01:00:00 2.4 8 Oeste 13 Oeste 0 -- -- 57
2017-11-18 00:00:00 2.2 4 Oeste 12 Oeste 0 -- -- 59
2017-11-17 23:00:00 2.2 2 Noroeste 11 Oeste 0 -- -- 62
2017-11-17 22:00:00 2.3 7 Oeste 12 Oeste 0 -- -- 62
2017-11-17 21:00:00 2.2 2 Oeste 7 Oeste 0 -- -- 59
2017-11-17 20:00:00 3.9 4 Sudoeste 12 Oeste 0 -- -- 51
2017-11-17 19:00:00 4.6 5 Oeste 8 Oeste 0 -- -- 48
2017-11-17 18:00:00 6.8 3 Oeste 6 Oeste 0 -- -- 43
2017-11-17 17:00:00 16.6 6 Nordeste 10 Nordeste 0 -- -- 26
2017-11-17 16:00:00 17 6 Sudeste 12 Sudeste 0 -- -- 25
2017-11-17 15:00:00 17.5 6 Este 13 Este 0 -- -- 26
2017-11-17 14:00:00 16.5 7 Sudeste 15 Sudeste 0 -- -- 27
2017-11-17 13:00:00 17.3 3 Nordeste 15 Sudeste 0 -- -- 30
2017-11-17 12:00:00 15.6 5 Sudeste 9 Sudeste 0 -- -- 34
2017-11-17 11:00:00 14.2 3 Nordeste 9 Oeste 0 -- -- 37
2017-11-17 10:00:00 11.5 0 Calma 10 Oeste 0 -- -- 44
2017-11-17 09:00:00 3.6 9 Oeste 12 Oeste 0 -- -- 62
2017-11-17 08:00:00 -0.1 9 Oeste 13 Oeste 0 -- -- 73
2017-11-17 07:00:00 0.1 6 Oeste 14 Oeste 0 -- -- 72
2017-11-17 06:00:00 0.4 6 Oeste 11 Oeste 0 -- -- 70
2017-11-17 05:00:00 0.1 4 Oeste 11 Oeste 0 -- -- 71
2017-11-17 04:00:00 0.3 6 Oeste 11 Oeste 0 -- -- 71
2017-11-17 03:00:00 1.1 7 Oeste 13 Oeste 0 -- -- 69
2017-11-17 02:00:00 1.9 8 Oeste 11 Oeste 0 -- -- 65
2017-11-17 01:00:00 1.9 8 Oeste 13 Oeste 0 -- -- 64
2017-11-17 00:00:00 2 6 Oeste 10 Oeste 0 -- -- 63
2017-11-16 23:00:00 2.5 5 Oeste 9 Oeste 0 -- -- 62
2017-11-16 22:00:00 3.8 0 Calma 12 Oeste 0 -- -- 55
2017-11-16 21:00:00 3.1 5 Oeste 10 Oeste 0 -- -- 56
2017-11-16 20:00:00 5.2 2 Oeste 9 Noroeste 0 -- -- 49
2017-11-16 19:00:00 6.8 0 Calma 12 Norte 0 -- -- 44
2017-11-16 18:00:00 10.6 6 Noroeste 21 Norte 0 -- -- 36
2017-11-16 17:00:00 13.5 11 Norte 24 Norte 0 -- -- 31
2017-11-16 16:00:00 15.3 9 Norte 22 Norte 0 -- -- 29
2017-11-16 15:00:00 15.9 10 Norte 22 Nordeste 0 -- -- 28
2017-11-16 14:00:00 15.9 8 Nordeste 21 Nordeste 0 -- -- 28
2017-11-16 13:00:00 14.9 14 Nordeste 22 Nordeste 0 -- -- 28
2017-11-16 12:00:00 15 8 Norte 17 Nordeste 0 -- -- 27
2017-11-16 11:00:00 12.3 8 Oeste 14 Oeste 0 -- -- 36
2017-11-16 10:00:00 10.3 6 Oeste 12 Oeste 0 -- -- 42
2017-11-16 09:00:00 6 0 Calma 14 Oeste 0 -- -- 57
2017-11-16 08:00:00 0.5 9 Oeste 13 Oeste 0 -- -- 70
2017-11-16 07:00:00 0.7 6 Oeste 12 Oeste 0 -- -- 68
2017-11-16 06:00:00 0.9 9 Oeste 13 Oeste 0 -- -- 67
2017-11-16 05:00:00 0.5 5 Oeste 16 Sudoeste 0 -- -- 68
2017-11-16 04:00:00 1.4 8 Oeste 14 Sudoeste 0 -- -- 64
2017-11-16 03:00:00 2.6 10 Oeste 18 Oeste 0 -- -- 59
2017-11-16 02:00:00 2.7 10 Oeste 17 Oeste 0 -- -- 58
2017-11-16 01:00:00 3.5 10 Oeste 14 Oeste 0 -- -- 53
2017-11-16 00:00:00 3.3 4 Oeste 15 Oeste 0 -- -- 53
2017-11-15 23:00:00 3.9 14 Oeste 15 Oeste 0 -- -- 51
2017-11-15 22:00:00 3.5 6 Oeste 10 Oeste 0 -- -- 52
2017-11-15 21:00:00 3.3 0 Calma 11 Oeste 0 -- -- 52
2017-11-15 20:00:00 4.1 10 Oeste 13 Oeste 0 -- -- 49
2017-11-15 19:00:00 4 8 Oeste 10 Oeste 0 -- -- 49
2017-11-15 18:00:00 7.3 5 Oeste 7 Nordeste 0 -- -- 41
2017-11-15 17:00:00 15.3 4 Nordeste 8 Sudeste 0 -- -- 26
2017-11-15 16:00:00 16.8 5 Este 12 Este 0 -- -- 24
2017-11-15 15:00:00 17.4 9 Este 18 Oeste 0 -- -- 23
2017-11-15 14:00:00 15.9 10 Oeste 19 Oeste 0 -- -- 21
2017-11-15 13:00:00 14.7 10 Oeste 19 Oeste 0 -- -- 23
2017-11-15 12:00:00 12.6 13 Oeste 25 Oeste 0 -- -- 27
2017-11-15 11:00:00 10.5 17 Oeste 28 Oeste 0 -- -- 29
2017-11-15 10:00:00 7.8 17 Oeste 24 Oeste 0 -- -- 33
2017-11-15 09:00:00 3.4 9 Oeste 20 Oeste 0 -- -- 45
2017-11-15 08:00:00 -1.7 8 Oeste 13 Oeste 0 -- -- 58
2017-11-15 07:00:00 -2.7 0 Calma 5 Oeste 0 -- -- 63
2017-11-15 06:00:00 -2.6 2 Sudoeste 12 Sudoeste 0 -- -- 62
2017-11-15 05:00:00 -3.1 2 Oeste 8 Oeste 0 -- -- 65
2017-11-15 04:00:00 -2.4 4 Oeste 10 Oeste 0 -- -- 62
2017-11-15 03:00:00 -2.3 2 Noroeste 9 Sudoeste 0 -- -- 63
2017-11-15 02:00:00 -2.9 0 Calma 13 Oeste 0 -- -- 66
2017-11-15 01:00:00 -2.4 8 Oeste 12 Oeste 0 -- -- 67
2017-11-15 00:00:00 -2.5 5 Oeste 12 Oeste 0 -- -- 68
2017-11-14 23:00:00 -0.7 8 Oeste 12 Oeste 0 -- -- 62
2017-11-14 22:00:00 -1.2 0 Calma 4 Sudeste 0 -- -- 65
2017-11-14 21:00:00 -1.5 0 Calma 7 Oeste 0 -- -- 65
2017-11-14 20:00:00 -0.9 5 Oeste 8 Oeste 0 -- -- 61
2017-11-14 19:00:00 2.2 2 Este 6 Sur 0 -- -- 51
2017-11-14 18:00:00 5.4 6 Sur 15 Sudeste 0 -- -- 42
2017-11-14 17:00:00 10.8 8 Nordeste 14 Norte 0 -- -- 25
2017-11-14 16:00:00 11.6 6 Nordeste 15 Nordeste 0 -- -- 23
2017-11-14 15:00:00 11.2 8 Norte 18 Norte 0 -- -- 23
2017-11-14 14:00:00 10 8 Norte 22 Norte 0 -- -- 24
2017-11-14 13:00:00 8.8 10 Norte 20 Norte 0 -- -- 26
2017-11-14 12:00:00 8.6 5 Nordeste 18 Nordeste 0 -- -- 27
2017-11-14 11:00:00 6.4 8 Norte 17 Norte 0 -- -- 31
2017-11-14 10:00:00 3.9 10 Oeste 18 Oeste 0 -- -- 41
2017-11-14 09:00:00 1.7 10 Oeste 18 Oeste 0 -- -- 50
2017-11-14 08:00:00 -0.9 14 Oeste 25 Oeste 0 -- -- 61
2017-11-14 07:00:00 -1.2 17 Oeste 24 Oeste 0 -- -- 68
2017-11-14 06:00:00 -0.9 17 Oeste 31 Oeste 0 -- -- 69
2017-11-14 05:00:00 -0.7 18 Oeste 31 Oeste 0 -- -- 70
2017-11-14 04:00:00 -0.8 16 Oeste 33 Noroeste 0 -- -- 72
2017-11-14 03:00:00 -0.7 15 Oeste 26 Oeste 0 -- -- 74
2017-11-14 02:00:00 -0.8 15 Oeste 33 Oeste 0 -- -- 75
2017-11-14 01:00:00 -0.5 19 Noroeste 35 Noroeste 0 -- -- 74
2017-11-14 00:00:00 -0.8 17 Oeste 30 Oeste 0 -- -- 75
2017-11-13 23:00:00 -0.8 14 Oeste 30 Oeste 0 -- -- 75
2017-11-13 22:00:00 -0.1 10 Oeste 32 Noroeste 0 -- -- 72
2017-11-13 21:00:00 0.2 18 Oeste 37 Noroeste 0 -- -- 69
2017-11-13 20:00:00 0.6 16 Oeste 38 Noroeste 0 -- -- 67
2017-11-13 19:00:00 1.4 16 Noroeste 36 Noroeste 0 -- -- 61
2017-11-13 18:00:00 2.5 18 Noroeste 40 Norte 0 -- -- 54
2017-11-13 17:00:00 4.5 17 Noroeste 50 Noroeste 0 -- -- 46
2017-11-13 16:00:00 5.6 22 Noroeste 50 Noroeste 0 -- -- 42
2017-11-13 15:00:00 5.7 27 Noroeste 57 Noroeste 0 -- -- 44
2017-11-13 14:00:00 5.7 29 Noroeste 54 Noroeste 0 -- -- 50
2017-11-13 13:00:00 5.4 19 Noroeste 43 Norte 0 -- -- 55
2017-11-13 12:00:00 5.2 20 Norte 45 Norte 0 -- -- 68
2017-11-13 11:00:00 4.1 19 Norte 44 Norte 0 -- -- 78
2017-11-13 10:00:00 4.4 20 Norte 42 Noroeste 0 -- -- 71
2017-11-13 09:00:00 4.2 16 Noroeste 48 Noroeste 0 -- -- 73
2017-11-13 08:00:00 4 21 Noroeste 48 Noroeste 0 -- -- 70
2017-11-13 07:00:00 4.3 22 Noroeste 45 Noroeste 0 -- -- 77
2017-11-13 06:00:00 4.8 18 Noroeste 36 Noroeste 0 -- -- 80
2017-11-13 05:00:00 5.3 15 Noroeste 30 Noroeste 0 -- -- 80
2017-11-13 04:00:00 6.1 20 Noroeste 34 Noroeste 0 -- -- 77
2017-11-13 03:00:00 4.8 18 Oeste 29 Oeste 0 -- -- 85
2017-11-13 02:00:00 4.7 17 Oeste 28 Oeste 0 -- -- 86
2017-11-13 01:00:00 5.3 13 Oeste 21 Oeste 0 -- -- 83
2017-11-13 00:00:00 6.5 15 Oeste 22 Oeste 0 -- -- 78
2017-11-12 23:00:00 7.8 14 Oeste 24 Noroeste 0 -- -- 72
2017-11-12 22:00:00 7.6 10 Noroeste 19 Noroeste 0 -- -- 69
2017-11-12 21:00:00 8.5 11 Noroeste 27 Noroeste 0 -- -- 65
2017-11-12 20:00:00 8 15 Oeste 24 Oeste 0 -- -- 63
2017-11-12 19:00:00 9 10 Noroeste 20 Noroeste 0 -- -- 52
2017-11-12 18:00:00 10.9 9 Noroeste 28 Noroeste 0 -- -- 48
2017-11-12 17:00:00 13.4 15 Noroeste 33 Noroeste 0 -- -- 39
2017-11-12 16:00:00 14.7 15 Noroeste 30 Noroeste 0 -- -- 38
2017-11-12 15:00:00 15 14 Noroeste 36 Norte 0 -- -- 37
2017-11-12 14:00:00 14.1 16 Noroeste 28 Noroeste 0 -- -- 40
2017-11-12 13:00:00 13.8 11 Noroeste 23 Oeste 0 -- -- 43
2017-11-12 12:00:00 12 9 Noroeste 22 Oeste 0 -- -- 57
2017-11-12 11:00:00 8.5 15 Oeste 30 Oeste 0 -- -- 72
2017-11-12 10:00:00 7 17 Oeste 27 Oeste 0 -- -- 79
2017-11-12 09:00:00 4.9 15 Oeste 25 Oeste 0 -- -- 85
2017-11-12 08:00:00 3.1 17 Oeste 26 Oeste 0 -- -- 89
2017-11-12 07:00:00 3.4 17 Oeste 29 Oeste 0 -- -- 88
2017-11-12 06:00:00 2.5 19 Oeste 31 Oeste 0 -- -- 90
2017-11-12 05:00:00 3.1 16 Oeste 23 Oeste 0 -- -- 89
2017-11-12 04:00:00 2.3 15 Oeste 24 Oeste 0 -- -- 89
2017-11-12 03:00:00 4.3 16 Oeste 33 Sudoeste 0 -- -- 87
2017-11-12 02:00:00 4 7 Oeste 15 Oeste 0 -- -- 92
2017-11-12 01:00:00 3.1 4 Sudeste 17 Noroeste 0 -- -- 90
2017-11-12 00:00:00 3.7 3 Sudoeste 12 Oeste 0 -- -- 91
2017-11-11 23:00:00 5 8 Noroeste 22 Oeste 0 -- -- 88
2017-11-11 22:00:00 5.9 14 Noroeste 21 Oeste 0 -- -- 84
2017-11-11 21:00:00 7.4 12 Noroeste 23 Noroeste 0 -- -- 77
2017-11-11 20:00:00 6.8 12 Oeste 23 Noroeste 0 -- -- 77
2017-11-11 19:00:00 7.1 6 Noroeste 16 Noroeste 0 -- -- 76
2017-11-11 18:00:00 10.3 10 Noroeste 21 Noroeste 0 -- -- 63
2017-11-11 17:00:00 12.7 8 Norte 25 Norte 0 -- -- 55
2017-11-11 16:00:00 13.2 13 Noroeste 28 Oeste 0 -- -- 54
2017-11-11 15:00:00 13.4 11 Noroeste 24 Norte 0 -- -- 54
2017-11-11 14:00:00 12.5 15 Norte 27 Norte 0 -- -- 58
2017-11-11 13:00:00 11.9 12 Norte 25 Noroeste 0 -- -- 61
2017-11-11 12:00:00 10.7 9 Norte 23 Norte 0 -- -- 66
2017-11-11 11:00:00 9.5 11 Noroeste 24 Oeste 0 -- -- 71
2017-11-11 10:00:00 8.8 9 Noroeste 21 Noroeste 0 -- -- 71
2017-11-11 09:00:00 5.2 11 Oeste 20 Oeste 0 -- -- 83
2017-11-11 08:00:00 4.7 14 Oeste 26 Oeste 0 -- -- 84
2017-11-11 07:00:00 5.1 18 Noroeste 31 Oeste 0 -- -- 82
2017-11-11 06:00:00 4.7 15 Oeste 25 Oeste 0 -- -- 83
2017-11-11 05:00:00 4.6 11 Oeste 25 Oeste 0 -- -- 84
2017-11-11 04:00:00 4.3 13 Oeste 22 Oeste 0 -- -- 84
2017-11-11 03:00:00 5.6 11 Oeste 22 Noroeste 0 -- -- 81
2017-11-11 02:00:00 5.6 13 Noroeste 26 Noroeste 0 -- -- 82
2017-11-11 01:00:00 5.3 13 Oeste 22 Noroeste 0 -- -- 85
2017-11-11 00:00:00 6.2 13 Noroeste 32 Noroeste 0 -- -- 82
2017-11-10 23:00:00 5.9 10 Oeste 27 Noroeste 0 -- -- 84
2017-11-10 22:00:00 6.9 12 Noroeste 32 Noroeste 0 -- -- 81
2017-11-10 21:00:00 7.2 15 Noroeste 37 Norte 0 -- -- 81
2017-11-10 20:00:00 7.9 21 Noroeste 36 Noroeste 0 -- -- 80
2017-11-10 19:00:00 8.2 18 Noroeste 35 Noroeste 0 -- -- 78
2017-11-10 18:00:00 8.6 14 Noroeste 33 Noroeste 0 -- -- 72
2017-11-10 17:00:00 9.6 15 Norte 35 Norte 0 -- -- 64
2017-11-10 16:00:00 11 17 Norte 37 Norte 0 -- -- 57
2017-11-10 15:00:00 12 19 Norte 32 Norte 0 -- -- 54
2017-11-10 14:00:00 9.3 10 Norte 32 Norte 0 -- -- 65
2017-11-10 13:00:00 8.3 13 Norte 32 Noroeste 0 -- -- 73
2017-11-10 12:00:00 7.3 16 Norte 32 Noroeste 0 -- -- 79
2017-11-10 11:00:00 6.2 11 Noroeste 31 Noroeste 0 -- -- 81
2017-11-10 10:00:00 4.2 17 Noroeste 35 Oeste 0 -- -- 88
2017-11-10 09:00:00 2.4 17 Oeste 27 Oeste 0 -- -- 82
2017-11-10 08:00:00 1.4 18 Oeste 27 Oeste 0 -- -- 79
2017-11-10 07:00:00 0.3 12 Oeste 21 Oeste 0 -- -- 81
2017-11-10 06:00:00 -0.2 11 Oeste 19 Oeste 0 -- -- 82
2017-11-10 05:00:00 -0.7 9 Oeste 17 Oeste 0 -- -- 86
2017-11-10 04:00:00 -0.5 12 Oeste 21 Oeste 0 -- -- 84
2017-11-10 03:00:00 0.4 17 Oeste 24 Oeste 0 -- -- 81
2017-11-10 02:00:00 0.3 12 Oeste 18 Oeste 0 -- -- 80
2017-11-10 01:00:00 1.2 9 Oeste 20 Oeste 0 -- -- 76
2017-11-10 00:00:00 1.5 9 Noroeste 29 Noroeste 0 -- -- 74
2017-11-09 23:00:00 2.2 9 Noroeste 27 Noroeste 0 -- -- 72
2017-11-09 22:00:00 2.6 13 Noroeste 31 Noroeste 0 -- -- 73
2017-11-09 21:00:00 3 14 Noroeste 28 Noroeste 0 -- -- 75
2017-11-09 20:00:00 3.4 13 Noroeste 31 Noroeste 0 -- -- 73
2017-11-09 19:00:00 3.9 11 Noroeste 35 Noroeste 0 -- -- 71
2017-11-09 18:00:00 5.3 16 Noroeste 32 Noroeste 0 -- -- 65
2017-11-09 17:00:00 6 15 Noroeste 27 Norte 0 -- -- 59
2017-11-09 16:00:00 7.5 12 Norte 28 Noroeste 0 -- -- 55
2017-11-09 15:00:00 6.9 11 Norte 27 Norte 0 -- -- 61
2017-11-09 14:00:00 6 13 Noroeste 31 Norte 0 -- -- 69
2017-11-09 13:00:00 4.9 12 Norte 40 Norte 0 -- -- 72
2017-11-09 12:00:00 4.6 13 Norte 27 Noroeste 0 -- -- 76
2017-11-09 11:00:00 3.1 16 Noroeste 29 Noroeste 0 -- -- 80
2017-11-09 10:00:00 2.7 17 Noroeste 35 Noroeste 0 -- -- 80
2017-11-09 09:00:00 0.7 20 Noroeste 35 Oeste 0 -- -- 86
2017-11-09 08:00:00 -0.1 16 Oeste 23 Oeste 0 -- -- 87
2017-11-09 07:00:00 -0.8 15 Oeste 25 Oeste 0 -- -- 87
2017-11-09 06:00:00 -0.7 16 Oeste 27 Oeste 0 -- -- 86
2017-11-09 05:00:00 -0.7 17 Oeste 26 Noroeste 0 -- -- 87
2017-11-09 04:00:00 -0.8 15 Oeste 29 Oeste 0 -- -- 88
2017-11-09 03:00:00 -0.7 15 Oeste 27 Oeste 0 -- -- 88
2017-11-09 02:00:00 -1.1 12 Oeste 20 Oeste 0 -- -- 90
2017-11-09 01:00:00 -0.4 12 Oeste 27 Noroeste 0 -- -- 90
2017-11-09 00:00:00 0.2 11 Oeste 27 Norte 0 -- -- 88
2017-11-08 23:00:00 0.7 14 Noroeste 24 Noroeste 0.2 -- -- 87
2017-11-08 22:00:00 1.5 6 Noroeste 17 Oeste 0 -- -- 90
2017-11-08 21:00:00 1.4 9 Oeste 22 Noroeste 0 -- -- 91
2017-11-08 20:00:00 1.3 13 Oeste 22 Noroeste 1.2 -- -- 92
2017-11-08 19:00:00 2.7 6 Noroeste 26 Nordeste 0.6 -- -- 87
2017-11-08 18:00:00 5.8 7 Noroeste 22 Norte 0 -- -- 56
2017-11-08 17:00:00 6.6 13 Norte 31 Norte 0 -- -- 51
2017-11-08 16:00:00 7.5 16 Norte 33 Noroeste 0 -- -- 47
2017-11-08 15:00:00 8.1 15 Norte 38 Noroeste 0 -- -- 46
2017-11-08 14:00:00 8.3 16 Noroeste 32 Noroeste 0 -- -- 46
2017-11-08 13:00:00 8.6 10 Noroeste 32 Noroeste 0 -- -- 51
2017-11-08 12:00:00 6.8 17 Norte 32 Norte 0 -- -- 57
2017-11-08 11:00:00 7.9 15 Norte 31 Noroeste 0 -- -- 55
2017-11-08 10:00:00 5.8 16 Noroeste 31 Noroeste 0 -- -- 71
2017-11-08 09:00:00 4.9 10 Noroeste 24 Noroeste 0 -- -- 73
2017-11-08 08:00:00 3.7 10 Noroeste 24 Norte 0 -- -- 75
2017-11-08 07:00:00 4 13 Noroeste 27 Noroeste 0 -- -- 80
2017-11-08 06:00:00 4.7 8 Noroeste 19 Noroeste 0 -- -- 83
2017-11-08 05:00:00 5.6 8 Noroeste 16 Oeste 0 -- -- 81
2017-11-08 04:00:00 5.6 9 Oeste 16 Sudoeste 0 -- -- 78
2017-11-08 03:00:00 5.1 12 Oeste 18 Oeste 0 -- -- 78
2017-11-08 02:00:00 4 13 Oeste 21 Oeste 0 -- -- 79
2017-11-08 01:00:00 3.7 14 Oeste 23 Oeste 0 -- -- 80
2017-11-08 00:00:00 4.4 17 Oeste 33 Oeste 0 -- -- 76
2017-11-07 23:00:00 5.5 18 Oeste 33 Oeste 0 -- -- 72
2017-11-07 22:00:00 5.1 11 Oeste 21 Noroeste 0 -- -- 69
2017-11-07 21:00:00 5.4 14 Oeste 23 Oeste 0 -- -- 65
2017-11-07 20:00:00 5.9 13 Oeste 18 Oeste 0 -- -- 62
2017-11-07 19:00:00 7.6 12 Noroeste 19 Noroeste 0 -- -- 54
2017-11-07 18:00:00 9.5 8 Noroeste 27 Noroeste 0 -- -- 47
2017-11-07 17:00:00 11.9 15 Noroeste 35 Oeste 0 -- -- 40
2017-11-07 16:00:00 12.7 20 Noroeste 36 Noroeste 0 -- -- 35
2017-11-07 15:00:00 11.6 22 Noroeste 35 Noroeste 0 -- -- 36
2017-11-07 14:00:00 11.4 15 Noroeste 37 Noroeste 0 -- -- 31
2017-11-07 13:00:00 10 18 Noroeste 33 Noroeste 0 -- -- 32
2017-11-07 12:00:00 8.3 22 Noroeste 37 Oeste 0 -- -- 31
2017-11-07 11:00:00 6.1 22 Noroeste 39 Noroeste 0 -- -- 45
2017-11-07 10:00:00 4.4 19 Noroeste 32 Oeste 0 -- -- 61
2017-11-07 09:00:00 2.6 10 Noroeste 26 Oeste 0 -- -- 76
2017-11-07 08:00:00 0.2 17 Oeste 27 Oeste 0 -- -- 85
2017-11-07 07:00:00 0.5 15 Oeste 28 Oeste 0 -- -- 85
2017-11-07 06:00:00 0.4 14 Noroeste 25 Noroeste 0 -- -- 86
2017-11-07 05:00:00 0.9 18 Oeste 36 Noroeste 0 -- -- 85
2017-11-07 04:00:00 1.3 23 Oeste 33 Oeste 0 -- -- 82
2017-11-07 03:00:00 1.2 21 Oeste 36 Noroeste 0 -- -- 87
2017-11-07 02:00:00 1.7 13 Oeste 31 Noroeste 0 -- -- 84
2017-11-07 01:00:00 2.1 21 Oeste 33 Oeste 0 -- -- 82
2017-11-07 00:00:00 2.2 12 Noroeste 26 Noroeste 0 -- -- 84
2017-11-06 23:00:00 2.7 15 Noroeste 33 Noroeste 0 -- -- 82
2017-11-06 22:00:00 3 10 Noroeste 26 Noroeste 0 -- -- 80
2017-11-06 21:00:00 3.3 10 Noroeste 27 Noroeste 0 -- -- 78
2017-11-06 20:00:00 3.6 12 Oeste 24 Oeste 0 -- -- 75
2017-11-06 19:00:00 4.1 5 Noroeste 31 Noroeste 0 -- -- 74
2017-11-06 18:00:00 5.6 16 Noroeste 36 Oeste 0 -- -- 65
2017-11-06 17:00:00 6.8 25 Noroeste 46 Noroeste 0 -- -- 57
2017-11-06 16:00:00 7 28 Noroeste 41 Noroeste 0 -- -- 60
2017-11-06 15:00:00 6.6 17 Noroeste 38 Noroeste 0 -- -- 61
2017-11-06 14:00:00 7.8 23 Noroeste 42 Noroeste 0 -- -- 55
2017-11-06 13:00:00 6.4 22 Noroeste 40 Oeste 0 -- -- 63
2017-11-06 12:00:00 5.8 19 Noroeste 36 Noroeste 0 -- -- 62
2017-11-06 11:00:00 4.4 14 Noroeste 36 Noroeste 0 -- -- 76
2017-11-06 10:00:00 3.8 17 Noroeste 40 Noroeste 0 -- -- 79
2017-11-06 09:00:00 3.9 16 Noroeste 33 Noroeste 0 -- -- 80
2017-11-06 08:00:00 2.5 18 Noroeste 33 Noroeste 0 -- -- 89
2017-11-06 07:00:00 2.2 11 Noroeste 29 Noroeste 0 -- -- 92
2017-11-06 06:00:00 2.5 14 Noroeste 25 Noroeste 0 -- -- 91
2017-11-06 05:00:00 2.6 15 Oeste 25 Oeste 0 -- -- 89
2017-11-06 04:00:00 3.2 12 Oeste 23 Noroeste 0 -- -- 85
2017-11-06 03:00:00 3.8 12 Noroeste 23 Oeste 0 -- -- 81
2017-11-06 02:00:00 3.2 14 Oeste 22 Oeste 0 -- -- 83
2017-11-06 01:00:00 2.6 13 Oeste 21 Oeste 0 -- -- 85
2017-11-06 00:00:00 3.3 12 Oeste 19 Noroeste 0 -- -- 81
2017-11-05 23:00:00 3.5 11 Oeste 19 Oeste 0 -- -- 82
2017-11-05 22:00:00 3.7 9 Noroeste 19 Noroeste 0 -- -- 80
2017-11-05 21:00:00 4.3 8 Noroeste 22 Noroeste 0 -- -- 77
2017-11-05 20:00:00 5.4 12 Noroeste 23 Noroeste 0 -- -- 71
2017-11-05 19:00:00 6.4 13 Noroeste 26 Noroeste 0 -- -- 66
2017-11-05 18:00:00 7.1 9 Noroeste 34 Noroeste 0 -- -- 63
2017-11-05 17:00:00 8.9 18 Norte 36 Noroeste 0 -- -- 52
2017-11-05 16:00:00 9 20 Norte 41 Norte 0 -- -- 54
2017-11-05 15:00:00 10.7 20 Norte 40 Norte 0 -- -- 48
2017-11-05 14:00:00 9.6 17 Noroeste 41 Noroeste 0 -- -- 54
2017-11-05 13:00:00 9.7 19 Noroeste 38 Norte 0 -- -- 55
2017-11-05 12:00:00 8.6 19 Noroeste 37 Noroeste 0 -- -- 63
2017-11-05 11:00:00 8.1 13 Noroeste 35 Noroeste 0 -- -- 68
2017-11-05 10:00:00 7.5 12 Noroeste 29 Noroeste 0 -- -- 76
2017-11-05 09:00:00 6.2 15 Noroeste 30 Noroeste 0 -- -- 82
2017-11-05 08:00:00 5.3 9 Noroeste 33 Noroeste 0 -- -- 85
2017-11-05 07:00:00 6.3 14 Noroeste 32 Noroeste 0 -- -- 87
2017-11-05 06:00:00 6.5 17 Noroeste 33 Noroeste 0 -- -- 88
2017-11-05 05:00:00 7.4 18 Noroeste 31 Noroeste 0 -- -- 86
2017-11-05 04:00:00 7.4 12 Noroeste 25 Noroeste 0 -- -- 88
2017-11-05 03:00:00 7.6 13 Noroeste 25 Noroeste 0 -- -- 90
2017-11-05 02:00:00 8 13 Noroeste 34 Norte 0 -- -- 90
2017-11-05 01:00:00 8.5 10 Noroeste 28 Noroeste 0.2 -- -- 92
2017-11-05 00:00:00 8.4 9 Noroeste 21 Oeste 0 -- -- 92
2017-11-04 23:00:00 8.3 13 Noroeste 28 Oeste 0.2 -- -- 92
2017-11-04 22:00:00 7.7 10 Noroeste 22 Oeste 0 -- -- 92
2017-11-04 21:00:00 7.2 10 Oeste 18 Oeste 0 -- -- 91
2017-11-04 20:00:00 7 7 Oeste 22 Oeste 0 -- -- 89
2017-11-04 19:00:00 7.4 10 Oeste 22 Oeste 0 -- -- 88
2017-11-04 18:00:00 8 7 Oeste 20 Oeste 0 -- -- 87
2017-11-04 17:00:00 8.4 9 Oeste 30 Oeste 0.8 -- -- 91
2017-11-04 16:00:00 9.8 11 Oeste 18 Oeste 0 -- -- 85
2017-11-04 15:00:00 8.8 7 Oeste 24 Oeste 1.8 -- -- 88
2017-11-04 14:00:00 11.2 5 Oeste 14 Oeste 0.2 -- -- 79
2017-11-04 13:00:00 10 8 Oeste 24 Oeste 0.4 -- -- 84
2017-11-04 12:00:00 11.4 8 Sudoeste 19 Sudoeste 0 -- -- 75
2017-11-04 11:00:00 11.3 8 Oeste 14 Oeste 0 -- -- 69
2017-11-04 10:00:00 11.3 8 Sudoeste 22 Oeste 0 -- -- 71
2017-11-04 09:00:00 11.2 9 Oeste 19 Sudoeste 0 -- -- 72
2017-11-04 08:00:00 9.8 7 Oeste 20 Sudoeste 0 -- -- 79
2017-11-04 07:00:00 9.2 8 Oeste 22 Sudoeste 0 -- -- 83
2017-11-04 06:00:00 10 12 Sudoeste 22 Sur 0 -- -- 79
2017-11-04 05:00:00 9.1 4 Sur 7 Sur 0 -- -- 83
2017-11-04 04:00:00 10.8 5 Sudoeste 15 Sudoeste 0 -- -- 75
2017-11-04 03:00:00 11.5 10 Sudoeste 18 Sudoeste 0 -- -- 71
2017-11-04 02:00:00 8.7 2 Noroeste 13 Sudoeste 0 -- -- 76
2017-11-04 01:00:00 7.9 2 Oeste 8 Oeste 0 -- -- 79
2017-11-04 00:00:00 8.7 0 Calma 8 Sudoeste 0 -- -- 76
2017-11-03 23:00:00 8.9 0 Calma 8 Sur 0 -- -- 76
2017-11-03 22:00:00 9.6 3 Oeste 10 Sudoeste 0 -- -- 73
2017-11-03 21:00:00 12.6 8 Sudoeste 15 Sudoeste 0 -- -- 64
2017-11-03 20:00:00 12.5 7 Sudoeste 11 Sudoeste 0 -- -- 62
2017-11-03 19:00:00 11.5 6 Oeste 8 Oeste 0 -- -- 63
2017-11-03 18:00:00 13.6 3 Sudoeste 14 Oeste 0 -- -- 55
2017-11-03 17:00:00 15.9 12 Oeste 25 Noroeste 0 -- -- 49
2017-11-03 16:00:00 16.6 14 Oeste 30 Oeste 0 -- -- 48
2017-11-03 15:00:00 18.6 12 Oeste 32 Sudoeste 0 -- -- 41
2017-11-03 14:00:00 17.4 13 Oeste 30 Oeste 0 -- -- 44
2017-11-03 13:00:00 16.8 16 Sudoeste 30 Sudoeste 0 -- -- 51
2017-11-03 12:00:00 16.1 14 Sudoeste 33 Sudoeste 0 -- -- 53
2017-11-03 11:00:00 15 17 Sudoeste 32 Sudoeste 0 -- -- 53
2017-11-03 10:00:00 13.9 15 Sudoeste 23 Sudoeste 0 -- -- 58
2017-11-03 09:00:00 9.6 0 Calma 5 Noroeste 0 -- -- 81
2017-11-03 08:00:00 7.6 0 Calma 7 Oeste 0 -- -- 84
2017-11-03 07:00:00 8.4 0 Calma 12 Sur 0 -- -- 85
2017-11-03 06:00:00 8.6 2 Oeste 10 Sudeste 0 -- -- 84
2017-11-03 05:00:00 8.8 0 Calma 13 Sudeste 0 -- -- 84
2017-11-03 04:00:00 9 0 Calma 13 Sur 0 -- -- 83
2017-11-03 03:00:00 10.3 9 Sudeste 13 Sur 0 -- -- 80
2017-11-03 02:00:00 11 10 Sudeste 14 Sudeste 0 -- -- 77
2017-11-03 01:00:00 8.2 0 Calma 5 Sudeste 0 -- -- 73
2017-11-03 00:00:00 8.6 0 Calma 8 Oeste 0 -- -- 71
2017-11-02 23:00:00 8.9 7 Oeste 12 Oeste 0 -- -- 67
2017-11-02 22:00:00 7.9 3 Oeste 9 Oeste 0 -- -- 68
2017-11-02 21:00:00 9.6 4 Oeste 9 Oeste 0 -- -- 64
2017-11-02 20:00:00 9.7 4 Oeste 10 Oeste 0 -- -- 65
2017-11-02 19:00:00 11.3 7 Oeste 14 Oeste 0 -- -- 62
2017-11-02 18:00:00 13.3 9 Oeste 14 Oeste 0 -- -- 54
2017-11-02 17:00:00 16.6 10 Noroeste 21 Oeste 0 -- -- 42
2017-11-02 16:00:00 17.9 10 Noroeste 18 Oeste 0 -- -- 38
2017-11-02 15:00:00 19 4 Este 19 Noroeste 0 -- -- 40
2017-11-02 14:00:00 19.3 7 Oeste 18 Oeste 0 -- -- 42
2017-11-02 13:00:00 17.7 5 Sudeste 17 Este 0 -- -- 49
2017-11-02 12:00:00 17.6 6 Este 15 Este 0 -- -- 55
2017-11-02 11:00:00 14.5 7 Sudeste 10 Sudeste 0 -- -- 64
2017-11-02 10:00:00 12.4 4 Sudeste 11 Sur 0 -- -- 70
2017-11-02 09:00:00 9.1 5 Sudeste 8 Sur 0 -- -- 82
2017-11-02 08:00:00 5 0 Calma 7 Oeste 0 -- -- 93
2017-11-02 07:00:00 4.2 4 Oeste 6 Oeste 0 -- -- 93
2017-11-02 06:00:00 5.5 3 Sur 9 Sur 0 -- -- 89
2017-11-02 05:00:00 6.3 0 Calma 14 Sur 0 -- -- 91
2017-11-02 04:00:00 4.7 0 Calma 5 Oeste 0 -- -- 94
2017-11-02 03:00:00 5.1 0 Calma 6 Este 0 -- -- 92
2017-11-02 02:00:00 6.2 0 Calma 9 Sudoeste 0 -- -- 89
2017-11-02 01:00:00 7.1 3 Sudoeste 9 Sudoeste 0 -- -- 85
2017-11-02 00:00:00 8.4 0 Calma 15 Sur 0 -- -- 78
2017-11-01 23:00:00 10 5 Sur 21 Sudoeste 0 -- -- 71
2017-11-01 22:00:00 12.3 15 Sudoeste 26 Sudoeste 0 -- -- 64
2017-11-01 21:00:00 12.3 17 Sudoeste 26 Sudoeste 0 -- -- 63
2017-11-01 20:00:00 9.9 2 Noroeste 13 Oeste 0 -- -- 67
2017-11-01 19:00:00 11 8 Oeste 10 Oeste 0 -- -- 62
2017-11-01 18:00:00 15.7 4 Noroeste 9 Noroeste 0 -- -- 49
2017-11-01 17:00:00 18 4 Norte 18 Oeste 0 -- -- 42
2017-11-01 16:00:00 19.8 4 Norte 15 Este 0 -- -- 40
2017-11-01 15:00:00 19.6 8 Este 18 Nordeste 0 -- -- 40
2017-11-01 14:00:00 19.6 9 Este 20 Este 0 -- -- 42
2017-11-01 13:00:00 16.5 8 Este 13 Este 0 -- -- 50
2017-11-01 12:00:00 15 2 Sudeste 18 Sudeste 0 -- -- 57
2017-11-01 11:00:00 15.9 8 Sudeste 14 Este 0 -- -- 56
2017-11-01 10:00:00 14.4 6 Sudeste 19 Sudeste 0 -- -- 60
2017-11-01 09:00:00 11.2 4 Este 13 Sur 0 -- -- 73
2017-11-01 08:00:00 4.9 0 Calma 5 Sudeste 0 -- -- 93
2017-11-01 07:00:00 3.2 0 Calma 4 Norte 0 -- -- 95
2017-11-01 06:00:00 2.9 3 Este 7 Este 0 -- -- 94
2017-11-01 05:00:00 3.2 0 Calma 5 Este 0 -- -- 93
2017-11-01 04:00:00 4.1 0 Calma 5 Este 0 -- -- 92
2017-11-01 03:00:00 4.5 0 Calma 5 Sudoeste 0 -- -- 91
2017-11-01 02:00:00 4.6 0 Calma 7 Oeste 0 -- -- 89
2017-11-01 01:00:00 5.1 2 Oeste 4 Este 0 -- -- 86
2017-11-01 00:00:00 5 0 Calma 3 Este 0 -- -- 83
2017-10-31 23:00:00 5.7 2 Oeste 8 Oeste 0 -- -- 81
2017-10-31 22:00:00 7 3 Sudoeste 10 Oeste 0 -- -- 77
2017-10-31 21:00:00 9 9 Oeste 11 Oeste 0 -- -- 70
2017-10-31 20:00:00 11.3 8 Oeste 12 Oeste 0 -- -- 62
2017-10-31 19:00:00 12.9 4 Oeste 15 Noroeste 0 -- -- 57
2017-10-31 18:00:00 13.7 5 Noroeste 16 Nordeste 0 -- -- 54
2017-10-31 17:00:00 16.8 15 Este 24 Sudeste 0 -- -- 47
2017-10-31 16:00:00 18.3 15 Este 29 Este 0 -- -- 44
2017-10-31 15:00:00 18.3 16 Este 31 Este 0 -- -- 45
2017-10-31 14:00:00 17.9 13 Este 29 Este 0 -- -- 48
2017-10-31 13:00:00 16.9 10 Este 22 Este 0 -- -- 50
2017-10-31 12:00:00 15.2 12 Sudeste 19 Este 0 -- -- 58
2017-10-31 11:00:00 12.8 8 Sudeste 13 Sudeste 0 -- -- 64
2017-10-31 10:00:00 11.4 4 Sudeste 8 Sudeste 0 -- -- 69
2017-10-31 09:00:00 6.3 3 Oeste 10 Oeste 0 -- -- 93
2017-10-31 08:00:00 0.9 0 Calma 7 Oeste 0 -- -- 96
2017-10-31 07:00:00 0.2 0 Calma 6 Oeste 0 -- -- 96
2017-10-31 06:00:00 0.1 3 Oeste 5 Oeste 0 -- -- 95
2017-10-31 05:00:00 1.6 0 Calma 5 Sudeste 0 -- -- 94
2017-10-31 04:00:00 3.4 4 Sudeste 8 Sudeste 0 -- -- 94
2017-10-31 03:00:00 0.8 0 Calma 2 Noroeste 0 -- -- 94
2017-10-31 02:00:00 1.5 0 Calma 3 Norte 0 -- -- 94
2017-10-31 01:00:00 2.1 0 Calma 3 Oeste 0 -- -- 93
2017-10-31 00:00:00 2.7 0 Calma 4 Norte 0 -- -- 92
2017-10-30 23:00:00 3.6 0 Calma 13 Sudeste 0 -- -- 90
2017-10-30 22:00:00 5.3 10 Sudeste 13 Sudeste 0 -- -- 89
2017-10-30 21:00:00 6.7 8 Sudeste 15 Sudeste 0 -- -- 87
2017-10-30 20:00:00 7.7 8 Sudeste 17 Este 0 -- -- 83
2017-10-30 19:00:00 9.3 6 Este 17 Este 0 -- -- 74
2017-10-30 18:00:00 12 9 Este 18 Nordeste 0 -- -- 62
2017-10-30 17:00:00 14.3 8 Nordeste 20 Nordeste 0 -- -- 52
2017-10-30 16:00:00 16.8 6 Norte 22 Norte 0 -- -- 46
2017-10-30 15:00:00 16.5 7 Nordeste 25 Nordeste 0 -- -- 48
2017-10-30 14:00:00 16.2 15 Nordeste 27 Nordeste 0 -- -- 48
2017-10-30 13:00:00 14.1 10 Nordeste 23 Nordeste 0 -- -- 57
2017-10-30 12:00:00 13.7 5 Nordeste 24 Norte 0 -- -- 59
2017-10-30 11:00:00 11.2 6 Nordeste 13 Nordeste 0 -- -- 70
2017-10-30 10:00:00 8.6 9 Oeste 21 Oeste 0 -- -- 81
2017-10-30 09:00:00 6.2 7 Sudoeste 18 Oeste 0 -- -- 92
2017-10-30 08:00:00 4.1 0 Calma 10 Sudoeste 0 -- -- 94
2017-10-30 07:00:00 2.3 2 Oeste 17 Oeste 0 -- -- 93
2017-10-30 06:00:00 1.7 9 Oeste 14 Oeste 0 -- -- 93
2017-10-30 05:00:00 1.7 0 Calma 15 Oeste 0 -- -- 92
2017-10-30 04:00:00 2.6 9 Oeste 14 Oeste 0 -- -- 91
2017-10-30 03:00:00 3.9 3 Oeste 10 Oeste 0 -- -- 91
2017-10-30 02:00:00 2.9 0 Calma 12 Oeste 0 -- -- 90
2017-10-30 01:00:00 3.8 6 Oeste 10 Oeste 0 -- -- 90
2017-10-30 00:00:00 3.2 3 Norte 9 Oeste 0 -- -- 87
2017-10-29 23:00:00 3.3 2 Oeste 5 Sudeste 0 -- -- 85
2017-10-29 22:00:00 4.2 3 Sudeste 9 Sudeste 0 -- -- 78
2017-10-29 21:00:00 4.1 0 Calma 4 Oeste 0 -- -- 76
2017-10-29 20:00:00 5.6 0 Calma 5 Oeste 0 -- -- 68
2017-10-29 19:00:00 9 2 Nordeste 10 Nordeste 0 -- -- 59
2017-10-29 18:00:00 12.3 3 Norte 14 Norte 0 -- -- 37
2017-10-29 17:00:00 15.9 9 Norte 18 Norte 0 -- -- 29
2017-10-29 16:00:00 17.3 9 Norte 21 Norte 0 -- -- 25
2017-10-29 15:00:00 17 13 Norte 23 Norte 0 -- -- 24
2017-10-29 14:00:00 17.3 9 Norte 20 Nordeste 0 -- -- 26
2017-10-29 13:00:00 15.6 10 Nordeste 22 Nordeste 0 -- -- 28
2017-10-29 12:00:00 15.7 9 Este 17 Nordeste 0 -- -- 30
2017-10-29 11:00:00 14.6 6 Este 13 Este 0 -- -- 31
2017-10-29 10:00:00 12 5 Oeste 12 Sudoeste 0 -- -- 36
2017-10-29 09:00:00 9.2 0 Calma 10 Oeste 0 -- -- 56
2017-10-29 08:00:00 4 3 Oeste 15 Noroeste 0 -- -- 69
2017-10-29 07:00:00 2.5 0 Calma 13 Noroeste 0 -- -- 78
2017-10-29 06:00:00 2.2 6 Oeste 9 Oeste 0 -- -- 84
2017-10-29 05:00:00 3.4 2 Norte 16 Oeste 0 -- -- 86
2017-10-29 04:00:00 5.3 6 Oeste 17 Oeste 0 -- -- 79
2017-10-29 03:00:00 3.3 2 Nordeste 10 Oeste 0 -- -- 91
2017-10-29 02:00:00 3.6 8 Oeste 13 Sudoeste 0 -- -- 89
2017-10-29 01:00:00 3.8 5 Oeste 10 Oeste 0 -- -- 86
2017-10-29 00:00:00 4.7 8 Oeste 12 Oeste 0 -- -- 86
2017-10-28 23:00:00 4.7 0 Calma 8 Oeste 0 -- -- 85
2017-10-28 22:00:00 5.9 4 Oeste 6 Oeste 0 -- -- 78
2017-10-28 21:00:00 7.9 0 Calma 12 Este 0 -- -- 71
2017-10-28 20:00:00 10.3 2 Este 7 Nordeste 0 -- -- 66
2017-10-28 19:00:00 13.9 5 Nordeste 17 Nordeste 0 -- -- 54
2017-10-28 18:00:00 17.3 9 Nordeste 18 Nordeste 0 -- -- 45
2017-10-28 17:00:00 17.6 9 Nordeste 23 Nordeste 0 -- -- 44
2017-10-28 16:00:00 17.7 9 Nordeste 20 Nordeste 0 -- -- 45
2017-10-28 15:00:00 17.1 8 Nordeste 21 Nordeste 0 -- -- 47
2017-10-28 14:00:00 16.4 6 Nordeste 19 Norte 0 -- -- 51
2017-10-28 13:00:00 15 5 Nordeste 18 Nordeste 0 -- -- 55
2017-10-28 12:00:00 14.6 8 Este 17 Nordeste 0 -- -- 58
2017-10-28 11:00:00 13 3 Oeste 14 Oeste 0 -- -- 66
2017-10-28 10:00:00 9.9 7 Oeste 12 Oeste 0 -- -- 82
2017-10-28 09:00:00 5.7 6 Oeste 10 Oeste 0 -- -- 92
2017-10-28 08:00:00 7.2 8 Oeste 10 Oeste 0 -- -- 90
2017-10-28 07:00:00 7.4 6 Oeste 10 Oeste 0 -- -- 89
2017-10-28 06:00:00 8.1 0 Calma 12 Oeste 0 -- -- 88
2017-10-28 05:00:00 7.7 7 Oeste 12 Oeste 0 -- -- 90
2017-10-28 04:00:00 6.9 8 Oeste 14 Oeste 0 -- -- 89
2017-10-28 03:00:00 7.5 9 Oeste 15 Oeste 0 -- -- 86
2017-10-28 02:00:00 7.4 7 Oeste 14 Sudoeste 0 -- -- 85
2017-10-28 01:00:00 9.1 10 Oeste 21 Oeste 0 -- -- 81
2017-10-28 00:00:00 9.8 9 Sudoeste 20 Sudoeste 0 -- -- 79
2017-10-27 23:00:00 11.2 12 Noroeste 28 Noroeste 0 -- -- 73
2017-10-27 22:00:00 11.7 5 Noroeste 22 Oeste 0 -- -- 74
2017-10-27 21:00:00 13.6 11 Noroeste 25 Noroeste 0 -- -- 62
2017-10-27 20:00:00 15.1 10 Norte 23 Norte 0 -- -- 51
2017-10-27 19:00:00 17.7 9 Norte 26 Noroeste 0 -- -- 41
2017-10-27 18:00:00 21.8 14 Norte 28 Norte 0 -- -- 29
2017-10-27 17:00:00 22.9 15 Norte 31 Noroeste 0 -- -- 26
2017-10-27 16:00:00 22.6 13 Noroeste 33 Noroeste 0 -- -- 29
2017-10-27 15:00:00 21.8 18 Noroeste 32 Noroeste 0 -- -- 28
2017-10-27 14:00:00 21.6 14 Noroeste 32 Noroeste 0 -- -- 28
2017-10-27 13:00:00 20.5 13 Noroeste 26 Norte 0 -- -- 34
2017-10-27 12:00:00 20.4 12 Norte 29 Norte 0 -- -- 35
2017-10-27 11:00:00 18.3 11 Oeste 18 Oeste 0 -- -- 37
2017-10-27 10:00:00 14.4 5 Oeste 9 Oeste 0 -- -- 47
2017-10-27 09:00:00 8.9 4 Oeste 12 Oeste 0 -- -- 60
2017-10-27 08:00:00 8.2 9 Oeste 15 Oeste 0 -- -- 61
2017-10-27 07:00:00 7.6 0 Calma 14 Oeste 0 -- -- 65
2017-10-27 06:00:00 8.3 4 Oeste 10 Oeste 0 -- -- 62
2017-10-27 05:00:00 8.8 5 Oeste 18 Oeste 0 -- -- 61
2017-10-27 04:00:00 9.4 13 Oeste 19 Oeste 0 -- -- 59
2017-10-27 03:00:00 9.8 7 Oeste 14 Oeste 0 -- -- 58
2017-10-27 02:00:00 10.4 8 Oeste 12 Oeste 0 -- -- 56
2017-10-27 01:00:00 10.7 11 Oeste 14 Oeste 0 -- -- 54
2017-10-27 00:00:00 10.6 7 Oeste 12 Oeste 0 -- -- 54
2017-10-26 23:00:00 11.9 9 Oeste 12 Oeste 0 -- -- 54
2017-10-26 22:00:00 10.7 4 Oeste 9 Oeste 0 -- -- 55
2017-10-26 21:00:00 12.4 0 Calma 13 Oeste 0 -- -- 48
2017-10-26 20:00:00 13.9 6 Oeste 9 Oeste 0 -- -- 43
2017-10-26 19:00:00 19.3 3 Oeste 9 Nordeste 0 -- -- 33
2017-10-26 18:00:00 25.9 6 Norte 14 Norte 0 -- -- 23
2017-10-26 17:00:00 28.8 0 Calma 18 Nordeste 0 -- -- 21
2017-10-26 16:00:00 27.1 7 Nordeste 14 Sudeste 0 -- -- 23
2017-10-26 15:00:00 25.9 8 Este 17 Sudeste 0 -- -- 24
2017-10-26 14:00:00 24.9 9 Este 17 Este 0 -- -- 25
2017-10-26 13:00:00 24 7 Sudeste 15 Sudeste 0 -- -- 26
2017-10-26 12:00:00 23.4 5 Sudeste 11 Nordeste 0 -- -- 28
2017-10-26 11:00:00 22.4 2 Este 9 Sudoeste 0 -- -- 30
2017-10-26 10:00:00 13.2 7 Oeste 15 Oeste 0 -- -- 45
2017-10-26 09:00:00 8.9 9 Oeste 14 Oeste 0 -- -- 55
2017-10-26 08:00:00 8 8 Oeste 13 Oeste 0 -- -- 58
2017-10-26 07:00:00 9.3 10 Oeste 16 Oeste 0 -- -- 55
2017-10-26 06:00:00 7.8 3 Noroeste 13 Oeste 0 -- -- 61
2017-10-26 05:00:00 7 4 Oeste 13 Sudoeste 0 -- -- 64
2017-10-26 04:00:00 8.7 10 Oeste 12 Oeste 0 -- -- 58
2017-10-26 03:00:00 8.9 6 Oeste 11 Oeste 0 -- -- 57
2017-10-26 02:00:00 9.7 9 Oeste 15 Oeste 0 -- -- 54
2017-10-26 01:00:00 10.4 10 Oeste 14 Oeste 0 -- -- 52
2017-10-26 00:00:00 11.7 9 Oeste 13 Oeste 0 -- -- 49